Terminal Aerodrome Forecast
Issued by NWS

Home | Current Version | Previous Version | Text Only | Print | Product List | Glossary On
Versions: 1 2 3 4 5 6 7 8 9 10 11 12 13 14 15 16 17 18
000
FTUS43 KLSX 262300
TAFUIN
TAF
KUIN 262340Z 2700/2724 22014G22KT P6SM VCSH SCT050 BKN080
     FM270200 22008KT P6SM FEW050
     FM271500 28010KT P6SM SCT040=

USA.gov is the U.S. government's official web portal to all federal, state and local government web resources and services.